createdAt,value
2018-06-13T00:00:25.344Z,80.18
2018-06-13T00:01:35.424Z,79.85
2018-06-13T00:02:45.225Z,79.89
2018-06-13T00:03:55.320Z,79.98
2018-06-13T00:05:04.888Z,79.94
2018-06-13T00:06:14.434Z,80.08
2018-06-13T00:07:24.254Z,80.18
2018-06-13T00:08:34.487Z,79.98
2018-06-13T00:09:44.549Z,79.98
2018-06-13T00:10:54.626Z,80.18
2018-06-13T00:12:04.723Z,80.04
2018-06-13T00:13:14.919Z,80.04
2018-06-13T00:14:24.996Z,80.56
2018-06-13T00:15:35.071Z,80.71
2018-06-13T00:16:45.148Z,80.52
2018-06-13T00:17:55.210Z,80.43
2018-06-13T00:19:05.316Z,80.71
2018-06-13T00:20:15.398Z,80.71
2018-06-13T00:21:24.943Z,80.62
2018-06-13T00:22:35.024Z,80.71
2018-06-13T00:23:44.817Z,80.62
2018-06-13T00:24:54.900Z,80.81
2018-06-13T00:26:04.742Z,80.62
2018-06-13T00:27:14.825Z,81.01
2018-06-13T00:28:24.640Z,80.62
2018-06-13T00:29:34.804Z,80.62
2018-06-13T00:30:44.885Z,81.01
2018-06-13T00:31:54.972Z,80.71
2018-06-13T00:33:05.040Z,80.62
2018-06-13T00:34:15.115Z,80.62
2018-06-13T00:35:25.197Z,80.33
2018-06-13T00:36:35.267Z,80.43
2018-06-13T00:37:45.400Z,80.62
2018-06-13T00:38:55.479Z,80.68
2018-06-13T00:40:05.297Z,80.48
2018-06-13T00:41:15.105Z,80.58
2018-06-13T00:42:24.920Z,80.48
2018-06-13T00:43:35.007Z,80.48
2018-06-13T00:44:45.081Z,80.77
2018-06-13T00:45:54.878Z,80.62
2018-06-13T00:47:04.477Z,80.38
2018-06-13T00:48:14.564Z,80.38
2018-06-13T00:49:24.588Z,80.68
2018-06-13T00:50:34.628Z,80.68
2018-06-13T00:51:44.709Z,80.68
2018-06-13T00:52:54.717Z,80.68
2018-06-13T00:54:04.748Z,80.87
2018-06-13T00:55:14.760Z,80.87
2018-06-13T00:56:24.786Z,80.68
2018-06-13T00:57:34.544Z,80.96
2018-06-13T00:58:44.551Z,80.58
2018-06-13T00:59:54.564Z,80.58
2018-06-13T01:01:03.816Z,80.58
2018-06-13T01:02:13.813Z,80.58
2018-06-13T01:03:23.826Z,80.58
2018-06-13T01:04:33.832Z,80.58
2018-06-13T01:05:43.844Z,80.48
2018-06-13T01:06:53.370Z,80.48
2018-06-13T01:08:03.400Z,80.68
2018-06-13T01:09:13.431Z,80.68
2018-06-13T01:10:23.507Z,80.48
2018-06-13T01:11:33.581Z,80.58
2018-06-13T01:12:43.379Z,80.68
2018-06-13T01:13:53.465Z,80.87
2018-06-13T01:15:03.547Z,80.68
2018-06-13T01:16:13.623Z,80.58
2018-06-13T01:17:23.676Z,80.58
2018-06-13T01:18:33.481Z,80.68
2018-06-13T01:19:43.569Z,80.68
2018-06-13T01:20:53.381Z,80.77
2018-06-13T01:22:03.453Z,80.77
2018-06-13T01:23:13.713Z,80.77
2018-06-13T01:24:23.787Z,80.77
2018-06-13T01:25:33.866Z,80.68
2018-06-13T01:26:43.701Z,80.87
2018-06-13T01:27:53.497Z,80.77
2018-06-13T01:29:03.563Z,80.58
2018-06-13T01:30:13.702Z,80.58
2018-06-13T01:31:23.783Z,80.48
2018-06-13T01:32:33.869Z,80.48
2018-06-13T01:33:43.947Z,80.48
2018-06-13T01:34:53.767Z,80.68
2018-06-13T01:36:03.908Z,80.58
2018-06-13T01:37:14.032Z,80.68
2018-06-13T01:38:24.102Z,80.68
2018-06-13T01:39:34.178Z,80.77
2018-06-13T01:40:44.258Z,80.54
2018-06-13T01:41:54.102Z,80.68
2018-06-13T01:43:04.158Z,80.48
2018-06-13T01:44:14.237Z,80.58
2018-06-13T01:45:24.320Z,80.63
2018-06-13T01:46:34.589Z,80.63
2018-06-13T01:47:44.695Z,80.68
2018-06-13T01:48:54.750Z,80.54
2018-06-13T01:50:04.563Z,80.44
2018-06-13T01:51:14.372Z,80.63
2018-06-13T01:52:24.456Z,80.58
2018-06-13T01:53:34.573Z,80.48
2018-06-13T01:54:44.385Z,80.68
2018-06-13T01:55:54.459Z,80.68
2018-06-13T01:57:04.277Z,80.25
2018-06-13T01:58:14.351Z,80.63
2018-06-13T01:59:24.159Z,80.63
2018-06-13T02:00:33.960Z,80.44
2018-06-13T02:01:43.757Z,80.68
2018-06-13T02:02:53.824Z,80.25
2018-06-13T02:04:03.914Z,80.35
2018-06-13T02:05:13.981Z,80.63
2018-06-13T02:06:23.587Z,80.63
2018-06-13T02:07:33.659Z,80.44
2018-06-13T02:08:43.720Z,80.38
2018-06-13T02:09:53.789Z,80.35
2018-06-13T02:11:03.877Z,80.35
2018-06-13T02:12:13.955Z,80.35
2018-06-13T02:13:23.758Z,80.35
2018-06-13T02:14:33.813Z,80.44
2018-06-13T02:15:43.648Z,80.54
2018-06-13T02:16:53.720Z,80.63
2018-06-13T02:18:03.270Z,81.12
2018-06-13T02:19:13.349Z,81.02
2018-06-13T02:20:23.428Z,81.02
2018-06-13T02:21:33.495Z,80.83
2018-06-13T02:22:43.725Z,81.02
2018-06-13T02:23:53.281Z,81.12
2018-06-13T02:25:03.098Z,80.63
2018-06-13T02:26:13.169Z,81.02
2018-06-13T02:27:23.031Z,80.83
2018-06-13T02:28:33.224Z,80.73
2018-06-13T02:29:43.297Z,81.02
2018-06-13T02:30:53.388Z,80.83
2018-06-13T02:32:03.469Z,80.73
2018-06-13T02:33:13.294Z,80.83
2018-06-13T02:34:23.370Z,80.63
2018-06-13T02:35:33.202Z,80.63
2018-06-13T02:36:43.293Z,81.02
2018-06-13T02:37:53.377Z,80.83
2018-06-13T02:39:03.836Z,80.83
2018-06-13T02:40:13.965Z,81.02
2018-06-13T02:41:24.035Z,80.92
2018-06-13T02:42:34.127Z,80.54
2018-06-13T02:43:44.214Z,80.92
2018-06-13T02:44:54.309Z,80.25
2018-06-13T02:46:04.376Z,80.73
2018-06-13T02:47:14.204Z,80.92
2018-06-13T02:48:24.322Z,80.63
2018-06-13T02:49:34.165Z,80.54
2018-06-13T02:50:44.240Z,80.44
2018-06-13T02:51:54.319Z,80.63
2018-06-13T02:53:04.432Z,80.58
2018-06-13T02:54:14.539Z,80.54
2018-06-13T02:55:24.615Z,80.29
2018-06-13T02:56:34.683Z,80
2018-06-13T02:57:44.483Z,80.19
2018-06-13T02:58:53.786Z,80.1
2018-06-13T03:00:03.898Z,80.19
2018-06-13T03:01:14.082Z,80.1
2018-06-13T03:02:23.895Z,79.71
2018-06-13T03:34:50.746Z,74.88
2018-06-13T03:36:00.799Z,74.79
2018-06-13T03:37:10.862Z,75.56
2018-06-13T03:38:20.943Z,76.17
2018-06-13T03:39:31.013Z,76.65
2018-06-13T03:40:40.820Z,77.23
2018-06-13T03:41:50.902Z,77.81
2018-06-13T03:43:00.720Z,77.9
2018-06-13T03:44:10.784Z,78.38
2018-06-13T03:45:20.864Z,78.71
2018-06-13T03:46:30.945Z,79.1
2018-06-13T03:47:41.029Z,79.1
2018-06-13T03:48:50.836Z,78.81
2018-06-13T03:50:00.651Z,78.94
2018-06-13T03:51:10.724Z,78.85
2018-06-13T03:52:35.428Z,78.98
2018-06-13T03:53:45.246Z,79.17
2018-06-13T03:54:55.324Z,79.21
2018-06-13T03:56:05.390Z,78.73
2018-06-13T03:57:15.537Z,78.73
2018-06-13T03:58:25.098Z,78.96
2018-06-13T03:59:34.894Z,78.58
2018-06-13T04:00:44.970Z,78.67
2018-06-13T04:01:55.161Z,78.81
2018-06-13T04:03:05.248Z,78.13
2018-06-13T04:04:15.337Z,78.56
2018-06-13T04:05:25.476Z,78.27
2018-06-13T04:06:35.284Z,78.56
2018-06-13T04:07:45.410Z,78.36
2018-06-13T04:08:55.501Z,78.75
2018-06-13T04:10:05.322Z,78.85
2018-06-13T04:11:15.147Z,78.85
2018-06-13T04:12:25.237Z,78.75
2018-06-13T04:13:35.077Z,79.17
2018-06-13T04:14:44.970Z,78.79
2018-06-13T04:15:55.046Z,79.27
2018-06-13T04:17:05.120Z,78.69
2018-06-13T04:18:15.195Z,78.69
2018-06-13T04:19:25.016Z,78.25
2018-06-13T04:20:34.821Z,77.67
2018-06-13T04:21:44.897Z,78
2018-06-13T04:22:54.966Z,78
2018-06-13T04:24:05.057Z,77.45
2018-06-13T04:25:15.133Z,77.75
2018-06-13T04:26:24.944Z,78.13
2018-06-13T04:27:35.019Z,78.33
2018-06-13T04:28:44.834Z,78.58
2018-06-13T04:29:54.918Z,78.96
2018-06-13T04:31:04.783Z,78.92
2018-06-13T04:32:14.597Z,79.22
2018-06-13T04:33:24.153Z,79.41
2018-06-13T04:34:34.223Z,79.41
2018-06-13T04:35:44.105Z,79.6
2018-06-13T04:36:53.995Z,79.41
2018-06-13T04:38:04.058Z,79.8
2018-06-13T04:39:14.129Z,79.56
2018-06-13T04:40:24.225Z,79.47
2018-06-13T04:41:34.317Z,79.66
2018-06-13T04:42:43.869Z,80.05
2018-06-13T04:43:53.951Z,79.75
2018-06-13T04:45:04.032Z,79.17
2018-06-13T04:46:13.853Z,79.37
2018-06-13T04:47:23.921Z,79.56
2018-06-13T04:48:33.782Z,79.56
2018-06-13T04:49:43.579Z,79.66
2018-06-13T04:50:53.405Z,79.6
2018-06-13T04:52:03.213Z,79.17
2018-06-13T04:53:13.275Z,79.31
2018-06-13T04:54:23.355Z,79.5
2018-06-13T04:55:33.437Z,78.92
2018-06-13T04:56:43.508Z,79.22
2018-06-13T04:57:53.341Z,78.96
2018-06-13T04:59:03.140Z,78.67
2018-06-13T05:00:13.296Z,78.77
2018-06-13T05:01:23.376Z,78.77
2018-06-13T05:02:33.454Z,78.77
2018-06-13T05:03:43.024Z,78.77
2018-06-13T05:04:53.113Z,79.35
2018-06-13T05:06:03.241Z,79.16
2018-06-13T05:07:13.315Z,79.25
2018-06-13T05:08:23.400Z,78.87
2018-06-13T05:09:33.465Z,78.58
2018-06-13T05:10:43.532Z,78.48
2018-06-13T05:11:53.404Z,77.94
2018-06-13T05:13:03.491Z,78.71
2018-06-13T05:14:13.564Z,77.84
2018-06-13T05:15:23.391Z,77.59
2018-06-13T05:16:33.212Z,77.59
2018-06-13T05:17:42.778Z,77.98
2018-06-13T05:18:52.854Z,77.69
2018-06-13T05:20:02.933Z,77.78
2018-06-13T05:21:12.743Z,77.5
2018-06-13T05:22:22.548Z,77.44
2018-06-13T05:23:32.629Z,77.14
2018-06-13T05:24:42.442Z,76.89
2018-06-13T05:25:52.515Z,76.7
2018-06-13T05:27:02.330Z,75.77
2018-06-13T05:28:12.400Z,74.93
2018-06-13T05:29:22.473Z,74.91
2018-06-13T05:30:32.543Z,74.52
2018-06-13T05:31:42.376Z,74.81
2018-06-13T05:32:52.446Z,74.33
2018-06-13T05:34:02.519Z,74.56
2018-06-13T05:35:12.330Z,73.91
2018-06-13T05:36:22.422Z,72.24
2018-06-13T05:37:32.244Z,71.95
2018-06-13T05:38:42.058Z,71.11
2018-06-13T05:39:51.620Z,71.08
2018-06-13T05:41:01.756Z,70.5
2018-06-13T05:42:11.820Z,69.53
2018-06-13T05:43:21.119Z,69.7
2018-06-13T05:44:31.235Z,69.53
2018-06-13T05:45:41.298Z,68.78
2018-06-13T05:46:51.392Z,68.91
2018-06-13T05:48:01.216Z,68.65
2018-06-13T05:49:11.295Z,70.12
2018-06-13T05:50:21.111Z,71.42
2018-06-13T05:51:31.170Z,73.02
2018-06-13T05:52:41.262Z,73.54
2018-06-13T05:53:51.334Z,74.77
2018-06-13T05:55:01.414Z,74.15
2018-06-13T05:56:11.250Z,74.54
2018-06-13T05:57:21.338Z,75.76
2018-06-13T05:58:31.175Z,75.92
2018-06-13T05:59:41.246Z,75.69
2018-06-13T06:00:51.074Z,75.79
2018-06-13T06:02:01.147Z,75.79
2018-06-13T06:03:10.977Z,75.04
2018-06-13T06:04:20.799Z,75.04
2018-06-13T06:05:30.625Z,74.66
2018-06-13T06:06:40.708Z,75.63
2018-06-13T06:07:50.794Z,75.69
2018-06-13T06:09:00.623Z,76.34
2018-06-13T06:10:10.728Z,76.5
2018-06-13T06:11:20.734Z,76.4
2018-06-13T06:12:30.840Z,76.2
2018-06-13T06:13:40.923Z,75.52
2018-06-13T06:14:50.484Z,75.71
2018-06-13T06:16:00.616Z,74.84
2018-06-13T06:17:10.712Z,74.78
2018-06-13T06:18:20.834Z,73.55
2018-06-13T06:19:30.673Z,73.82
2018-06-13T06:20:40.488Z,74.46
2018-06-13T06:21:50.590Z,74.23
2018-06-13T06:23:00.663Z,73.94
2018-06-13T06:24:10.477Z,74.62
2018-06-13T06:25:20.557Z,75.01
2018-06-13T06:26:30.647Z,74.58
2018-06-13T06:27:40.721Z,74.43
2018-06-13T06:28:50.804Z,73.74
2018-06-13T06:30:00.608Z,72.74
2018-06-13T06:31:10.681Z,71.74
2018-06-13T06:32:20.765Z,71.39
2018-06-13T06:33:30.623Z,71.61
2018-06-13T06:34:40.747Z,71.22
2018-06-13T06:35:50.820Z,71.32
2018-06-13T06:37:00.956Z,71.75
2018-06-13T06:38:10.785Z,71.55
2018-06-13T06:39:20.865Z,71.36
2018-06-13T06:40:30.933Z,71.06
2018-06-13T06:41:41.029Z,71.39
2018-06-13T06:42:50.854Z,72.17
2018-06-13T06:44:00.667Z,71.88
2018-06-13T06:45:10.778Z,71.98
2018-06-13T06:46:20.864Z,71.49
2018-06-13T06:47:30.952Z,71.52
2018-06-13T06:48:41.105Z,72.21
2018-06-13T06:49:50.948Z,72.02
2018-06-13T06:51:01.090Z,72.11
2018-06-13T06:52:11.221Z,72.02
2018-06-13T06:53:21.051Z,72.6
2018-06-13T06:54:31.121Z,72.6
2018-06-13T06:55:41.599Z,73.09
2018-06-13T06:56:51.536Z,72.99
2018-06-13T06:58:01.366Z,72.99
2018-06-13T06:59:11.211Z,73.58
2018-06-13T07:00:21.317Z,74.03
2018-06-13T07:01:31.429Z,74.48
2018-06-13T07:02:41.572Z,74.29
2018-06-13T07:03:51.889Z,74.74
2018-06-13T07:05:01.997Z,74.71
2018-06-13T07:06:11.836Z,75.93
2018-06-13T07:07:21.660Z,76.39
2018-06-13T07:08:31.728Z,76.54
2018-06-13T07:09:41.547Z,77.29
2018-06-13T07:10:51.369Z,76.67
2018-06-13T07:12:01.450Z,76.47
2018-06-13T07:13:11.724Z,76.51
2018-06-13T07:14:22.165Z,75.63
2018-06-13T07:15:32.011Z,75.63
2018-06-13T07:16:42.105Z,75.53
2018-06-13T07:17:52.145Z,75.73
2018-06-13T07:19:02.308Z,75.82
2018-06-13T07:20:12.577Z,75.67
2018-06-13T07:21:22.649Z,75.57
2018-06-13T07:22:32.734Z,75.67
2018-06-13T07:23:42.827Z,75.47
2018-06-13T07:24:52.997Z,75.57
2018-06-13T07:26:02.893Z,75.27
2018-06-13T07:27:12.994Z,75.08
2018-06-13T07:28:22.811Z,74.93
2018-06-13T07:29:32.907Z,74.15
2018-06-13T07:30:43.016Z,74.67
2018-06-13T07:31:53.104Z,74.61
2018-06-13T07:33:03.169Z,74.9
2018-06-13T07:34:13.307Z,75
2018-06-13T07:35:23.411Z,74.77
2018-06-13T07:36:33.520Z,75.6
2018-06-13T07:37:43.637Z,75.8
2018-06-13T07:38:53.726Z,76.35
2018-06-13T07:40:03.848Z,76.8
2018-06-13T07:41:13.692Z,76.9
2018-06-13T07:42:23.808Z,76.67
2018-06-13T07:43:33.934Z,76.96
2018-06-13T07:44:44.031Z,77.01
2018-06-13T07:45:54.116Z,77.21
2018-06-13T07:47:04.192Z,77.11
2018-06-13T07:48:14.007Z,77.5
2018-06-13T07:49:24.085Z,77.08
2018-06-13T07:50:34.193Z,76.78
2018-06-13T07:51:44.290Z,76.78
2018-06-13T07:52:54.380Z,76.78
2018-06-13T07:54:04.208Z,76.34
2018-06-13T07:55:14.424Z,75.75
2018-06-13T07:56:24.685Z,75.2
2018-06-13T07:57:34.809Z,75.43
2018-06-13T07:58:44.886Z,74.69
2018-06-13T07:59:54.972Z,74.54
2018-06-13T08:01:04.782Z,74.15
2018-06-13T08:02:14.977Z,74.67
2018-06-13T08:03:25.238Z,73.89
2018-06-13T08:04:35.303Z,74.12
2018-06-13T08:05:45.408Z,74.71
2018-06-13T08:06:55.535Z,74.61
2018-06-13T08:08:05.116Z,75
2018-06-13T08:09:15.206Z,74.71
2018-06-13T08:10:25.283Z,74.51
2018-06-13T08:11:35.364Z,74.15
2018-06-13T08:12:45.471Z,73.86
2018-06-13T08:13:55.571Z,73.41
2018-06-13T08:15:05.688Z,72.76
2018-06-13T08:16:15.808Z,72.41
2018-06-13T08:17:25.878Z,72.05
2018-06-13T08:18:36.011Z,71.59
2018-06-13T08:19:46.094Z,71.83
2018-06-13T08:20:56.188Z,71.53
2018-06-13T08:22:06.020Z,71.47
2018-06-13T08:23:16.129Z,71.7
2018-06-13T08:24:26.209Z,72.48
2018-06-13T08:25:36.029Z,72.84
2018-06-13T08:26:46.141Z,73.1
2018-06-13T08:27:56.218Z,73.39
2018-06-13T08:29:06.328Z,73.55
2018-06-13T08:30:16.467Z,74.14
2018-06-13T08:31:26.539Z,73.75
2018-06-13T08:32:36.627Z,74.01
2018-06-13T08:33:46.874Z,74.69
2018-06-13T08:34:57.186Z,74.3
2018-06-13T08:36:07.284Z,74.85
2018-06-13T08:37:17.373Z,74.36
2018-06-13T08:38:27.489Z,75.11
2018-06-13T08:39:37.324Z,74.71
2018-06-13T08:40:47.489Z,75.46
2018-06-13T08:41:57.637Z,75.56
2018-06-13T08:43:07.742Z,75.33
2018-06-13T08:44:17.869Z,74.84
2018-06-13T08:45:27.463Z,74.97
2018-06-13T08:46:37.561Z,74.58
2018-06-13T08:47:47.677Z,74.71
2018-06-13T08:48:57.507Z,74.62
2018-06-13T08:50:07.332Z,74.81
2018-06-13T08:51:17.445Z,74.71
2018-06-13T08:52:27.302Z,74.42
2018-06-13T08:53:37.466Z,74.91
2018-06-13T08:54:47.564Z,74.32
2018-06-13T08:55:57.657Z,74.62
2018-06-13T08:57:07.768Z,74.71
2018-06-13T08:58:17.886Z,74.62
2018-06-13T08:59:27.966Z,74.52
2018-06-13T09:00:37.829Z,74.81
2018-06-13T09:01:47.935Z,74.62
2018-06-13T09:02:57.757Z,74.91
2018-06-13T09:04:07.833Z,74.13
2018-06-13T09:05:17.909Z,74.22
2018-06-13T09:06:27.989Z,74.13
2018-06-13T09:07:38.089Z,74.22
2018-06-13T09:08:48.184Z,74.42
2018-06-13T09:09:58.412Z,74.46
2018-06-13T09:11:08.289Z,74.36
2018-06-13T09:12:18.386Z,73.97
2018-06-13T09:13:28.480Z,73.22
2018-06-13T09:14:38.577Z,72.61
2018-06-13T09:15:48.686Z,72.16
2018-06-13T09:16:58.942Z,71.8
2018-06-13T09:18:08.783Z,73.23
2018-06-13T09:19:18.941Z,73.49
2018-06-13T09:20:29.057Z,74.14
2018-06-13T09:21:38.870Z,75.18
2018-06-13T09:22:48.495Z,74.46
2018-06-13T09:23:58.327Z,75.11
2018-06-13T09:25:08.398Z,75.5
2018-06-13T09:26:18.470Z,75.72
2018-06-13T09:27:28.552Z,76.6
2018-06-13T09:28:38.467Z,77.34
2018-06-13T09:29:48.552Z,77.75
2018-06-13T09:30:58.647Z,78.11
2018-06-13T09:32:08.743Z,78.36
2018-06-13T09:33:18.831Z,78.81
2018-06-13T09:34:28.926Z,78.87
2018-06-13T09:35:39.025Z,78.67
2018-06-13T09:36:49.140Z,78.53
2018-06-13T09:37:58.962Z,79.18
2018-06-13T09:39:08.792Z,78.5
2018-06-13T09:40:18.650Z,78.79
2018-06-13T09:41:28.213Z,78.46
2018-06-13T09:42:38.040Z,78.56
2018-06-13T09:43:48.154Z,78.56
2018-06-13T09:44:58.324Z,78.66
2018-06-13T09:46:14.763Z,78.46
2018-06-13T09:47:24.580Z,79.04
2018-06-13T09:48:34.719Z,78.56
2018-06-13T09:49:44.831Z,77.97
2018-06-13T09:50:54.948Z,77.87
2018-06-13T09:52:04.713Z,77.78
2018-06-13T09:53:14.820Z,77.48
2018-06-13T09:54:24.981Z,76.55
2018-06-13T09:55:35.176Z,76.3
2018-06-13T09:56:45.109Z,76.3
2018-06-13T09:57:55.453Z,75.75
2018-06-13T09:59:05.274Z,74.97
2018-06-13T10:00:15.383Z,74.56
2018-06-13T10:01:25.462Z,73.72
2018-06-13T10:02:35.295Z,72.81
2018-06-13T10:03:45.126Z,71.81
2018-06-13T10:04:55.234Z,71.69
2018-06-13T10:06:05.329Z,71.72
2018-06-13T10:07:15.408Z,71.66
2018-06-13T10:08:25.484Z,71.46
2018-06-13T10:09:35.297Z,71.75
2018-06-13T10:10:44.861Z,71.66
2018-06-13T10:11:54.970Z,71.11
2018-06-13T10:13:05.086Z,71.14
2018-06-13T10:14:15.174Z,70.88
2018-06-13T10:15:25.250Z,70.72
2018-06-13T10:16:35.326Z,70.75
2018-06-13T10:17:45.140Z,70.75
2018-06-13T10:18:55.267Z,71.04
2018-06-13T10:20:05.368Z,71.53
2018-06-13T10:21:14.965Z,71.53
2018-06-13T10:22:25.064Z,72.42
2018-06-13T10:23:35.145Z,72.48
2018-06-13T10:24:45.228Z,73.13
2018-06-13T10:25:54.805Z,73.82
2018-06-13T10:27:04.900Z,74.08
2018-06-13T10:28:15.002Z,73.85
2018-06-13T10:29:25.072Z,74.63
2018-06-13T10:30:35.176Z,74.43
2018-06-13T10:31:44.751Z,74.88
2018-06-13T10:32:55.094Z,74.88
2018-06-13T10:34:05.193Z,74.95
2018-06-13T10:35:15.352Z,74.95
2018-06-13T10:36:25.459Z,74.75
2018-06-13T10:37:35.320Z,74.85
2018-06-13T10:38:45.619Z,74.65
2018-06-13T10:39:55.431Z,74.85
2018-06-13T10:41:05.567Z,75.24
2018-06-13T10:42:15.392Z,74.85
2018-06-13T10:43:25.483Z,74.85
2018-06-13T10:44:35.567Z,74.07
2018-06-13T10:45:45.133Z,74.59
2018-06-13T10:46:55.266Z,74.46
2018-06-13T10:48:05.092Z,74.36
2018-06-13T10:49:14.920Z,74.36
2018-06-13T10:50:25.015Z,74.16
2018-06-13T10:51:34.834Z,74.1
2018-06-13T10:52:44.930Z,74.3
2018-06-13T10:53:55.021Z,74.14
2018-06-13T10:55:05.121Z,73.55
2018-06-13T10:56:15.020Z,73.69
2018-06-13T10:57:25.121Z,72.9
2018-06-13T10:58:35.201Z,73.72
2018-06-13T10:59:45.295Z,73.29
2018-06-13T11:00:55.389Z,73.03
2018-06-13T11:02:05.493Z,72.84
2018-06-13T11:03:15.577Z,73.17
2018-06-13T11:04:25.651Z,72.81
2018-06-13T11:05:35.722Z,73.11
2018-06-13T11:06:45.803Z,73.21
2018-06-13T11:07:55.890Z,73.01
2018-06-13T11:09:05.980Z,73.21
2018-06-13T11:10:16.067Z,72.81
2018-06-13T11:11:26.157Z,72.71
2018-06-13T11:12:36.260Z,73.21
2018-06-13T11:13:46.344Z,73.01
2018-06-13T11:14:56.174Z,73.17
2018-06-13T11:16:06.272Z,73.17
2018-06-13T11:17:16.117Z,73.21
2018-06-13T11:18:26.215Z,72.91
2018-06-13T11:19:36.342Z,71.86
2018-06-13T11:20:46.705Z,72.39
2018-06-13T11:21:56.780Z,72.3
2018-06-13T11:23:06.620Z,72.88
2018-06-13T11:24:16.711Z,72.94
2018-06-13T11:25:26.797Z,72.09
2018-06-13T11:26:36.630Z,71.74
2018-06-13T11:27:46.790Z,71.84
2018-06-13T11:28:56.892Z,71.58
2018-06-13T11:30:06.998Z,71.58
2018-06-13T11:31:17.098Z,71.77
2018-06-13T11:32:27.238Z,72.23
2018-06-13T11:33:37.114Z,72.49
2018-06-13T11:34:47.181Z,72.88
2018-06-13T11:35:57.282Z,72.98
2018-06-13T11:37:07.109Z,73.24
2018-06-13T11:38:16.931Z,73.21
2018-06-13T11:39:26.745Z,73.3
2018-06-13T11:40:36.820Z,73.01
2018-06-13T11:41:46.912Z,72.85
2018-06-13T11:42:56.997Z,72.26
2018-06-13T11:44:07.101Z,72.49
2018-06-13T11:45:17.212Z,71.7
2018-06-13T11:46:27.309Z,71.48
2018-06-13T11:47:37.411Z,70.98
2018-06-13T11:48:47.501Z,71.31
2018-06-13T11:49:57.582Z,71.06
2018-06-13T11:51:07.696Z,70.96
2018-06-13T11:52:17.523Z,71.75
2018-06-13T11:53:27.615Z,71.81
2018-06-13T11:54:37.607Z,71.81
2018-06-13T11:55:47.695Z,72.4
2018-06-13T11:56:57.783Z,72.2
2018-06-13T11:58:07.882Z,72.17
2018-06-13T11:59:17.446Z,72.86
2018-06-13T12:00:27.690Z,73.02
2018-06-13T12:01:37.965Z,74.16
2018-06-13T12:02:48.248Z,73.93
2018-06-13T12:03:58.337Z,74.29
2018-06-13T12:05:08.181Z,74.08
2018-06-13T12:06:18.277Z,74.48
2018-06-13T12:07:28.406Z,74.48
2018-06-13T12:08:38.488Z,74.25
2018-06-13T12:09:48.591Z,74.74
2018-06-13T12:10:58.233Z,74.64
2018-06-13T12:12:08.565Z,74.35
2018-06-13T12:13:18.648Z,74.05
2018-06-13T12:14:28.785Z,74.25
2018-06-13T12:15:38.873Z,73.75
2018-06-13T12:16:49.011Z,73.56
2018-06-13T12:17:59.272Z,73.66
2018-06-13T12:19:09.341Z,73.5
2018-06-13T12:20:19.501Z,73.3
2018-06-13T12:21:29.583Z,73.3
2018-06-13T12:22:39.795Z,72.85
2018-06-13T12:23:49.886Z,73.14
2018-06-13T12:24:59.978Z,73.24
2018-06-13T12:26:10.071Z,73.04
2018-06-13T12:27:19.899Z,73.01
2018-06-13T12:28:29.996Z,74.08
2018-06-13T12:29:39.919Z,73.56
2018-06-13T12:30:50.037Z,74.05
2018-06-13T12:32:00.452Z,74.02
2018-06-13T12:33:10.307Z,74.51
2018-06-13T12:34:20.305Z,74.47
2018-06-13T12:35:29.937Z,75.05
2018-06-13T12:36:40.050Z,74.33
2018-06-13T12:37:50.220Z,74.53
2018-06-13T12:39:00.315Z,74.63
2018-06-13T12:40:10.615Z,74.14
2018-06-13T12:41:20.904Z,74.24
2018-06-13T12:42:31.023Z,74.63
2018-06-13T12:43:41.115Z,74.98
2018-06-13T12:44:51.199Z,75.08
2018-06-13T12:46:01.292Z,74.3
2018-06-13T12:47:10.858Z,74.2
2018-06-13T12:48:20.710Z,74.2
2018-06-13T12:49:30.805Z,73.61
2018-06-13T12:50:40.926Z,74.33
2018-06-13T12:51:50.766Z,74.33
2018-06-13T12:53:00.863Z,74.04
2018-06-13T12:54:10.719Z,73.85
2018-06-13T12:55:20.537Z,73.55
2018-06-13T12:56:30.382Z,73.55
2018-06-13T12:57:40.225Z,73.26
2018-06-13T12:58:50.496Z,73.06
2018-06-13T13:00:01.046Z,72.67
2018-06-13T13:01:11.143Z,73.85
2018-06-13T13:02:21.224Z,74.01
2018-06-13T13:03:30.785Z,74.01
2018-06-13T13:04:40.708Z,74.46
2018-06-13T13:05:50.729Z,75.01
2018-06-13T13:07:00.531Z,74.91
2018-06-13T13:08:10.593Z,74.62
2018-06-13T13:09:20.655Z,74.48
2018-06-13T13:10:30.219Z,74.38
2018-06-13T13:11:40.585Z,74.38
2018-06-13T13:12:50.446Z,74.29
2018-06-13T13:14:00.583Z,74.77
2018-06-13T13:15:10.705Z,74.84
2018-06-13T13:16:20.782Z,74.93
2018-06-13T13:17:30.950Z,74.74
2018-06-13T13:18:41.003Z,75.49
2018-06-13T13:19:51.201Z,75.29
2018-06-13T13:21:01.242Z,75.49
2018-06-13T13:22:11.327Z,74.71
2018-06-13T13:23:21.175Z,74.8
2018-06-13T13:24:30.701Z,74.9
2018-06-13T13:25:40.485Z,75.1
2018-06-13T13:26:50.580Z,74.8
2018-06-13T13:28:00.681Z,74.71
2018-06-13T13:29:10.940Z,75
2018-06-13T13:30:21.007Z,74.8
2018-06-13T13:31:31.310Z,75.35
2018-06-13T13:32:41.365Z,75.7
2018-06-13T13:33:51.496Z,75.76
2018-06-13T13:35:01.343Z,76.61
2018-06-13T13:36:11.472Z,76.9
2018-06-13T13:37:21.527Z,77.06
2018-06-13T13:38:31.316Z,77.06
2018-06-13T13:39:40.882Z,76.92
2018-06-13T13:40:51.003Z,77.01
2018-06-13T13:42:00.801Z,77.76
2018-06-13T13:43:10.887Z,77.86
2018-06-13T13:44:20.940Z,78.11
2018-06-13T13:45:31.203Z,78.85
2018-06-13T13:46:41.623Z,78.52
2018-06-13T13:47:51.454Z,79
2018-06-13T13:49:01.543Z,78.97
2018-06-13T13:50:11.634Z,79.51
2018-06-13T13:51:21.724Z,79.32
2018-06-13T13:52:31.816Z,79.18
2018-06-13T13:53:41.912Z,79.08
2018-06-13T13:54:52.014Z,79.37
2018-06-13T13:56:02.121Z,79.24
2018-06-13T13:57:12.209Z,79.33
2018-06-13T13:58:21.769Z,79.33
2018-06-13T13:59:31.863Z,79.24
2018-06-13T14:00:41.958Z,79
2018-06-13T14:01:52.045Z,79
2018-06-13T14:03:01.932Z,79
2018-06-13T14:04:12.091Z,78.81
2018-06-13T14:05:22.173Z,79.1
2018-06-13T14:06:32.296Z,79.1
2018-06-13T14:07:42.464Z,79.2
2018-06-13T14:08:52.593Z,79.3
2018-06-13T14:10:02.778Z,79.3
2018-06-13T14:11:12.971Z,79.16
2018-06-13T14:12:23.106Z,79.35
2018-06-13T14:13:33.416Z,79.06
2018-06-13T14:14:43.536Z,79.25
2018-06-13T14:15:53.661Z,79.45
2018-06-13T14:17:03.783Z,79.12
2018-06-13T14:18:13.940Z,79.32
2018-06-13T14:19:24.062Z,79.22
2018-06-13T14:20:33.926Z,79.22
2018-06-13T14:21:44.103Z,79.32
2018-06-13T14:22:54.224Z,79.17
2018-06-13T14:24:04.075Z,79.08
2018-06-13T14:25:13.921Z,79.17
2018-06-13T14:26:24.040Z,79.37
2018-06-13T14:27:34.217Z,79.17
2018-06-13T14:28:44.055Z,78.99
2018-06-13T14:29:53.893Z,79.17
2018-06-13T14:31:04.033Z,79.24
2018-06-13T14:32:14.149Z,79.24
2018-06-13T14:33:24.063Z,78.94
2018-06-13T14:34:34.163Z,79.14
2018-06-13T14:35:44.267Z,79.14
2018-06-13T14:36:54.429Z,79.24
2018-06-13T14:38:04.555Z,79.1
2018-06-13T14:39:14.729Z,79.29
2018-06-13T14:40:24.857Z,78.81
2018-06-13T14:41:34.984Z,78.91
2018-06-13T14:42:44.828Z,78.42
2018-06-13T14:43:54.941Z,78.71
2018-06-13T14:45:04.896Z,78.42
2018-06-13T14:46:15.308Z,78.13
2018-06-13T14:47:25.437Z,78.13
2018-06-13T14:48:35.615Z,78.61
2018-06-13T14:49:45.877Z,78.13
2018-06-13T14:50:56.083Z,78.13
2018-06-13T14:52:06.204Z,78.03
2018-06-13T14:53:16.309Z,78.13
2018-06-13T14:54:26.145Z,77.84
2018-06-13T14:55:36.009Z,77.65
2018-06-13T14:56:46.196Z,77.94
2018-06-13T14:57:56.629Z,77.75
2018-06-13T14:59:06.498Z,77.65
2018-06-13T15:00:16.606Z,77.65
2018-06-13T15:01:26.725Z,77.75
2018-06-13T15:02:36.889Z,77.65
2018-06-13T15:03:47.012Z,77.55
2018-06-13T15:04:57.126Z,77.75
2018-06-13T15:06:07.237Z,77.65
2018-06-13T15:07:17.395Z,77.94
2018-06-13T15:08:27.492Z,77.84
2018-06-13T15:09:37.625Z,77.45
2018-06-13T15:10:47.762Z,77.55
2018-06-13T15:11:57.614Z,77.65
2018-06-13T15:13:07.749Z,77.55
2018-06-13T15:14:17.466Z,77.65
2018-06-13T15:15:27.588Z,77.65
2018-06-13T15:16:37.440Z,78
2018-06-13T15:17:47.015Z,77.71
2018-06-13T15:18:57.138Z,77.8
2018-06-13T15:20:07.085Z,78.06
2018-06-13T15:21:17.194Z,78.25
2018-06-13T15:22:27.320Z,78.25
2018-06-13T15:23:37.428Z,78.69
2018-06-13T15:24:47.554Z,78.79
2018-06-13T15:25:57.675Z,79.17
2018-06-13T15:27:07.828Z,79.04
2018-06-13T15:28:17.941Z,78.85
2018-06-13T15:29:28.062Z,79.49
2018-06-13T15:30:38.177Z,79.39
2018-06-13T15:31:48.069Z,79.39
2018-06-13T15:32:57.918Z,79
2018-06-13T15:34:08.039Z,79.29
2018-06-13T15:35:18.157Z,79.35
2018-06-13T15:36:28.276Z,79.25